Time;durP1;ratioP1;P1;durP2;ratioP2;P2;SDS_P1;SDS_P2;PMS_P1;PMS_P2;Temp;Humidity;BMP_temperature;BMP_pressure;BME280_temperature;BME280_humidity;BME280_pressure;Samples;Min_cycle;Max_cycle;Signal;HPM_P1;HPM_P2
2023/08/17 00:01:55;;;;;;;4.37;1.70;;;;;;;;;;4911186;29;20179;-76
2023/08/17 00:04:22;;;;;;;5.13;1.80;;;;;;;;;;4908728;29;20211;-76
2023/08/17 00:07:06;;;;;;;4.73;1.83;;;;;;;;;;4910140;29;20323;-76
2023/08/17 00:09:33;;;;;;;3.73;1.80;;;;;;;;;;4911193;29;20203;-76
2023/08/17 00:12:17;;;;;;;5.70;1.80;;;;;;;;;;4911452;29;20200;-76
2023/08/17 00:14:44;;;;;;;3.90;1.80;;;;;;;;;;4911591;29;20575;-76
2023/08/17 00:17:11;;;;;;;4.37;1.73;;;;;;;;;;4895098;29;20195;-75
2023/08/17 00:19:37;;;;;;;3.17;1.40;;;;;;;;;;4911655;29;20648;-76
2023/08/17 00:22:04;;;;;;;2.83;1.77;;;;;;;;;;4910309;29;20203;-76
2023/08/17 00:24:48;;;;;;;3.40;1.53;;;;;;;;;;4900066;29;20184;-76
2023/08/17 00:27:15;;;;;;;3.80;1.67;;;;;;;;;;4911219;29;20308;-76
2023/08/17 00:29:42;;;;;;;5.40;1.77;;;;;;;;;;4914200;29;20192;-76
2023/08/17 00:32:09;;;;;;;4.27;1.70;;;;;;;;;;4883096;29;20270;-76
2023/08/17 00:34:36;;;;;;;2.70;1.60;;;;;;;;;;4915369;29;20680;-76
2023/08/17 00:37:20;;;;;;;4.77;1.93;;;;;;;;;;4915361;29;20530;-76
2023/08/17 00:39:46;;;;;;;5.43;1.90;;;;;;;;;;4898927;29;20274;-76
2023/08/17 00:42:13;;;;;;;3.73;1.97;;;;;;;;;;4911484;29;20622;-77
2023/08/17 00:44:41;;;;;;;5.40;1.70;;;;;;;;;;4896180;29;20254;-76
2023/08/17 00:47:07;;;;;;;4.63;2.00;;;;;;;;;;4895037;29;20306;-76
2023/08/17 00:49:52;;;;;;;2.97;1.60;;;;;;;;;;4896125;29;20172;-76
2023/08/17 00:52:18;;;;;;;7.23;1.97;;;;;;;;;;4879258;29;20224;-76
2023/08/17 00:55:03;;;;;;;6.30;1.87;;;;;;;;;;4881816;29;20180;-76
2023/08/17 00:57:31;;;;;;;6.43;2.00;;;;;;;;;;4895611;29;20196;-76
2023/08/17 00:59:58;;;;;;;4.47;1.97;;;;;;;;;;4882464;29;20199;-77
2023/08/17 01:02:31;;;;;;;4.77;1.77;;;;;;;;;;4898314;29;20948;-76
2023/08/17 01:04:58;;;;;;;3.43;1.80;;;;;;;;;;4916884;29;20274;-76
2023/08/17 01:07:29;;;;;;;3.83;1.70;;;;;;;;;;4883170;29;20195;-76
2023/08/17 01:09:57;;;;;;;3.10;2.03;;;;;;;;;;4897814;29;20199;-76
2023/08/17 01:44:44;;;;;;;5.93;2.23;;;;;;;;;;4717037;29;20239;-76
2023/08/17 01:47:14;;;;;;;6.70;2.33;;;;;;;;;;4894244;29;20256;-76
2023/08/17 01:49:42;;;;;;;5.77;2.20;;;;;;;;;;4878139;29;20204;-76
2023/08/17 01:52:09;;;;;;;6.63;2.50;;;;;;;;;;4895038;29;20219;-76
2023/08/17 01:54:54;;;;;;;5.07;2.30;;;;;;;;;;4909614;29;20555;-77
2023/08/17 01:57:20;;;;;;;4.63;2.40;;;;;;;;;;4893370;29;20631;-76
2023/08/17 01:59:47;;;;;;;4.20;2.30;;;;;;;;;;4878040;29;20210;-76
2023/08/17 02:02:14;;;;;;;4.67;2.17;;;;;;;;;;4917626;29;20191;-76
2023/08/17 02:04:41;;;;;;;3.70;2.23;;;;;;;;;;4913618;29;20202;-76
2023/08/17 02:07:09;;;;;;;4.90;2.27;;;;;;;;;;4898846;29;20210;-76
2023/08/17 02:09:35;;;;;;;4.00;1.90;;;;;;;;;;4915215;29;20219;-76
2023/08/17 02:12:04;;;;;;;5.40;2.20;;;;;;;;;;4898994;29;20540;-76
2023/08/17 02:14:49;;;;;;;5.83;2.10;;;;;;;;;;4896771;29;20287;-77
2023/08/17 02:17:16;;;;;;;5.43;2.70;;;;;;;;;;4896533;29;20192;-76
2023/08/17 02:19:43;;;;;;;4.73;2.50;;;;;;;;;;4913615;29;20285;-76
2023/08/17 02:22:10;;;;;;;4.10;2.60;;;;;;;;;;4909710;29;20208;-76
2023/08/17 02:24:37;;;;;;;4.70;2.57;;;;;;;;;;4912341;29;20202;-76
2023/08/17 02:27:21;;;;;;;4.43;1.97;;;;;;;;;;4913398;29;20176;-76
2023/08/17 02:29:48;;;;;;;5.67;2.17;;;;;;;;;;4913366;29;20222;-76
2023/08/17 02:32:15;;;;;;;7.67;2.73;;;;;;;;;;4911736;29;20204;-76
2023/08/17 02:34:42;;;;;;;4.43;2.07;;;;;;;;;;4928075;29;20247;-76
2023/08/17 02:37:08;;;;;;;3.67;1.80;;;;;;;;;;4911813;29;20199;-75
2023/08/17 02:39:53;;;;;;;3.90;2.10;;;;;;;;;;4900481;29;20227;-76
2023/08/17 02:42:20;;;;;;;2.93;2.20;;;;;;;;;;4884978;29;20199;-76
2023/08/17 02:45:05;;;;;;;3.77;2.27;;;;;;;;;;4893166;29;20220;-76
2023/08/17 02:47:34;;;;;;;4.47;2.20;;;;;;;;;;4892550;29;20212;-76
2023/08/17 02:50:01;;;;;;;4.27;2.20;;;;;;;;;;4892821;29;20207;-76
2023/08/17 02:52:28;;;;;;;3.03;2.10;;;;;;;;;;4896661;29;20195;-76
2023/08/17 02:54:55;;;;;;;5.60;2.17;;;;;;;;;;4912673;29;20195;-76
2023/08/17 02:57:22;;;;;;;4.67;2.30;;;;;;;;;;4910584;29;20195;-76
2023/08/17 02:59:50;;;;;;;5.83;2.10;;;;;;;;;;4896380;29;20199;-76
2023/08/17 03:02:16;;;;;;;4.23;2.30;;;;;;;;;;4895698;29;20655;-76
2023/08/17 03:04:43;;;;;;;4.93;2.20;;;;;;;;;;4895858;29;20214;-76
2023/08/17 03:07:10;;;;;;;5.67;2.33;;;;;;;;;;4912525;29;20544;-76
2023/08/17 03:09:37;;;;;;;2.90;1.97;;;;;;;;;;4912516;29;20206;-77
2023/08/17 03:12:04;;;;;;;3.87;2.10;;;;;;;;;;4893527;29;20264;-76
2023/08/17 03:14:31;;;;;;;3.60;2.37;;;;;;;;;;4927116;29;20223;-76
2023/08/17 03:16:58;;;;;;;2.87;2.13;;;;;;;;;;4911239;29;20203;-76
2023/08/17 03:19:25;;;;;;;3.60;2.80;;;;;;;;;;4904138;29;20215;-75
2023/08/17 03:21:53;;;;;;;5.97;2.73;;;;;;;;;;4888319;29;20196;-80
2023/08/17 03:24:21;;;;;;;5.80;2.70;;;;;;;;;;4906162;29;20204;-81
2023/08/17 03:27:06;;;;;;;4.87;2.40;;;;;;;;;;4880390;29;20557;-79
2023/08/17 03:29:35;;;;;;;4.60;2.80;;;;;;;;;;4893636;29;20252;-79
2023/08/17 03:32:03;;;;;;;4.57;2.50;;;;;;;;;;4890329;29;20710;-77
2023/08/17 03:34:30;;;;;;;4.03;2.67;;;;;;;;;;4891622;29;20302;-79
2023/08/17 03:37:02;;;;;;;4.63;2.20;;;;;;;;;;4880178;29;20214;-78
2023/08/17 03:39:32;;;;;;;4.20;2.23;;;;;;;;;;4894738;29;20209;-80
2023/08/17 03:42:00;;;;;;;5.17;2.43;;;;;;;;;;4908952;29;20215;-79
2023/08/17 03:44:27;;;;;;;4.83;2.13;;;;;;;;;;4909143;29;20801;-80
2023/08/17 03:46:56;;;;;;;7.00;2.37;;;;;;;;;;4910809;29;20200;-76
2023/08/17 03:49:24;;;;;;;7.33;2.50;;;;;;;;;;4909008;29;20253;-76
2023/08/17 03:51:52;;;;;;;4.57;2.40;;;;;;;;;;4908150;29;20203;-76
2023/08/17 03:54:21;;;;;;;6.80;2.40;;;;;;;;;;4909554;29;20216;-78
2023/08/17 03:56:48;;;;;;;4.47;2.20;;;;;;;;;;4893724;29;20677;-78
2023/08/17 03:59:16;;;;;;;5.60;2.30;;;;;;;;;;4893075;29;20627;-79
2023/08/17 04:02:00;;;;;;;5.80;2.43;;;;;;;;;;4909330;29;20239;-78
2023/08/17 04:04:28;;;;;;;5.23;2.40;;;;;;;;;;4893244;29;20204;-82
2023/08/17 04:06:57;;;;;;;6.80;2.53;;;;;;;;;;4925196;29;20200;-81
2023/08/17 04:09:25;;;;;;;6.33;3.00;;;;;;;;;;4897793;29;20235;-79
2023/08/17 04:11:52;;;;;;;6.80;3.13;;;;;;;;;;4892220;29;20271;-77
2023/08/17 04:14:20;;;;;;;7.50;2.70;;;;;;;;;;4908512;29;20259;-80
2023/08/17 04:16:49;;;;;;;5.43;2.60;;;;;;;;;;4890453;29;20203;-80
2023/08/17 04:19:17;;;;;;;4.40;2.10;;;;;;;;;;4913244;29;20200;-81
2023/08/17 04:21:44;;;;;;;5.27;2.27;;;;;;;;;;4864102;29;20248;-76
2023/08/17 04:24:11;;;;;;;3.73;2.20;;;;;;;;;;4888609;29;20192;-79
2023/08/17 04:26:40;;;;;;;5.93;1.93;;;;;;;;;;4890844;29;20568;-81
2023/08/17 04:29:25;;;;;;;5.10;2.00;;;;;;;;;;4888733;29;20172;-78
2023/08/17 04:31:54;;;;;;;11.47;3.00;;;;;;;;;;4887908;29;21000;-77
2023/08/17 04:34:23;;;;;;;10.10;2.40;;;;;;;;;;4891184;29;20318;-82
2023/08/17 04:36:50;;;;;;;4.70;2.37;;;;;;;;;;4890238;29;20244;-77
2023/08/17 04:39:20;;;;;;;7.53;2.60;;;;;;;;;;4886114;29;20295;-78
2023/08/17 04:42:05;;;;;;;6.33;2.10;;;;;;;;;;4891792;29;20183;-81
2023/08/17 04:44:33;;;;;;;6.03;2.23;;;;;;;;;;4890635;29;20287;-80
2023/08/17 04:47:03;;;;;;;10.07;2.73;;;;;;;;;;4865618;29;20197;-85
2023/08/17 04:49:31;;;;;;;11.00;2.60;;;;;;;;;;4892309;29;20284;-83
2023/08/17 04:52:01;;;;;;;6.57;2.17;;;;;;;;;;4892060;29;20207;-81
2023/08/17 04:54:45;;;;;;;6.80;2.77;;;;;;;;;;4878818;29;20230;-83
2023/08/17 04:57:13;;;;;;;7.73;2.17;;;;;;;;;;4906256;29;20204;-83
2023/08/17 04:59:40;;;;;;;8.77;2.40;;;;;;;;;;4888219;29;20264;-75
2023/08/17 05:02:08;;;;;;;8.67;2.70;;;;;;;;;;4891224;29;20272;-75
2023/08/17 05:04:38;;;;;;;9.27;2.73;;;;;;;;;;4884894;29;20661;-77
2023/08/17 05:07:06;;;;;;;9.20;3.03;;;;;;;;;;4871537;29;20228;-78
2023/08/17 05:09:34;;;;;;;9.63;2.90;;;;;;;;;;4882311;29;20717;-81
2023/08/17 05:12:03;;;;;;;6.27;2.63;;;;;;;;;;4887509;29;20679;-82
2023/08/17 05:14:31;;;;;;;7.40;3.40;;;;;;;;;;4890943;29;20232;-82
2023/08/17 05:17:00;;;;;;;6.23;2.83;;;;;;;;;;4895504;29;20268;-84
2023/08/17 05:19:28;;;;;;;8.03;2.87;;;;;;;;;;4894164;29;20235;-84
2023/08/17 05:21:56;;;;;;;10.17;3.53;;;;;;;;;;4893573;29;20260;-82
2023/08/17 05:24:26;;;;;;;6.23;3.13;;;;;;;;;;4863182;29;20259;-80
2023/08/17 05:26:53;;;;;;;8.90;2.40;;;;;;;;;;4847316;29;20602;-78
2023/08/17 05:29:23;;;;;;;9.73;3.03;;;;;;;;;;4860703;29;20668;-78
2023/08/17 05:31:50;;;;;;;47.93;8.57;;;;;;;;;;4876251;29;20552;-78
2023/08/17 05:34:23;;;;;;;30.33;5.20;;;;;;;;;;4891365;29;20243;-78
2023/08/17 05:36:50;;;;;;;14.10;3.97;;;;;;;;;;4893421;29;20207;-81
2023/08/17 05:39:17;;;;;;;5.53;2.80;;;;;;;;;;4877895;29;20949;-79
2023/08/17 05:41:44;;;;;;;6.37;2.73;;;;;;;;;;4874687;29;20195;-77
2023/08/17 05:44:29;;;;;;;10.07;2.80;;;;;;;;;;4877553;29;20268;-82
2023/08/17 05:46:57;;;;;;;9.80;2.80;;;;;;;;;;4877787;29;20204;-82
2023/08/17 05:49:26;;;;;;;9.20;2.73;;;;;;;;;;4879591;29;20204;-83
2023/08/17 05:51:56;;;;;;;8.43;2.83;;;;;;;;;;4862031;29;20209;-84
2023/08/17 05:54:23;;;;;;;7.97;2.60;;;;;;;;;;4861496;29;20592;-73
2023/08/17 05:57:05;;;;;;;7.57;2.50;;;;;;;;;;4875369;29;20232;-78
2023/08/17 05:59:32;;;;;;;4.60;2.30;;;;;;;;;;4888294;29;20199;-74
2023/08/17 06:01:59;;;;;;;5.37;2.10;;;;;;;;;;4893239;29;20188;-77
2023/08/17 06:04:26;;;;;;;7.33;2.30;;;;;;;;;;4860718;29;20193;-73
2023/08/17 06:06:53;;;;;;;7.77;2.20;;;;;;;;;;4892800;29;20207;-72
2023/08/17 06:09:20;;;;;;;5.17;1.97;;;;;;;;;;4891316;29;20605;-73
2023/08/17 06:11:47;;;;;;;5.23;2.17;;;;;;;;;;4891720;29;20214;-73
2023/08/17 06:14:14;;;;;;;8.93;2.07;;;;;;;;;;4891951;29;20588;-72
2023/08/17 06:16:41;;;;;;;9.40;2.30;;;;;;;;;;4886851;29;20192;-73
2023/08/17 06:19:08;;;;;;;71.23;7.57;;;;;;;;;;4869875;29;20227;-72
2023/08/17 06:21:36;;;;;;;45.10;5.03;;;;;;;;;;4888192;29;20215;-73
2023/08/17 06:24:03;;;;;;;23.10;3.50;;;;;;;;;;4898265;29;20315;-73
2023/08/17 06:26:31;;;;;;;13.37;2.20;;;;;;;;;;4890542;29;20209;-74
2023/08/17 06:28:57;;;;;;;7.07;1.73;;;;;;;;;;4881430;29;20199;-73
2023/08/17 06:31:27;;;;;;;12.83;2.37;;;;;;;;;;4889095;29;20228;-72
2023/08/17 06:33:54;;;;;;;6.97;1.90;;;;;;;;;;4890998;29;20216;-72
2023/08/17 06:36:21;;;;;;;5.77;1.63;;;;;;;;;;4887818;29;20265;-74
2023/08/17 06:38:48;;;;;;;5.50;1.90;;;;;;;;;;4887998;29;20305;-74
2023/08/17 06:41:16;;;;;;;6.07;2.00;;;;;;;;;;4886593;29;20260;-74
2023/08/17 06:43:42;;;;;;;5.50;1.63;;;;;;;;;;4891536;29;21028;-74
2023/08/17 06:46:10;;;;;;;5.90;1.90;;;;;;;;;;4906360;29;20234;-73
2023/08/17 06:48:37;;;;;;;7.87;1.80;;;;;;;;;;4890697;29;20822;-72
2023/08/17 06:51:05;;;;;;;6.03;1.93;;;;;;;;;;4922168;29;20260;-73
2023/08/17 06:53:32;;;;;;;4.93;1.67;;;;;;;;;;4890644;29;20188;-73
2023/08/17 06:55:59;;;;;;;4.43;1.90;;;;;;;;;;4920175;29;20212;-74
2023/08/17 06:58:29;;;;;;;4.87;1.83;;;;;;;;;;4875094;29;20640;-73
2023/08/17 07:01:14;;;;;;;7.23;2.20;;;;;;;;;;4890642;29;20180;-75
2023/08/17 07:03:41;;;;;;;5.60;1.80;;;;;;;;;;4875611;29;20236;-74
2023/08/17 07:06:12;;;;;;;6.50;2.00;;;;;;;;;;4890084;29;21022;-75
2023/08/17 07:08:40;;;;;;;7.17;1.90;;;;;;;;;;4889391;29;20288;-75
2023/08/17 07:11:09;;;;;;;9.53;2.53;;;;;;;;;;4900762;29;20201;-74
2023/08/17 07:13:37;;;;;;;10.20;2.47;;;;;;;;;;4885790;29;20197;-75
2023/08/17 07:16:05;;;;;;;9.13;2.60;;;;;;;;;;4885331;29;20204;-76
2023/08/17 07:18:32;;;;;;;6.43;2.00;;;;;;;;;;4889075;29;20184;-77
2023/08/17 07:21:05;;;;;;;8.00;2.30;;;;;;;;;;4899405;29;20193;-80
2023/08/17 07:23:35;;;;;;;5.87;2.20;;;;;;;;;;4903568;29;20787;-81
2023/08/17 07:26:06;;;;;;;8.33;1.97;;;;;;;;;;4878584;29;20258;-82
2023/08/17 07:28:37;;;;;;;10.07;2.87;;;;;;;;;;4891349;29;20215;-81
2023/08/17 07:31:07;;;;;;;8.23;2.67;;;;;;;;;;4900419;29;20226;-86
2023/08/17 07:33:35;;;;;;;9.27;2.60;;;;;;;;;;4859265;29;20197;-78
2023/08/17 07:36:04;;;;;;;9.10;2.37;;;;;;;;;;4885720;29;20196;-78
2023/08/17 07:38:32;;;;;;;6.80;2.20;;;;;;;;;;4888638;29;20208;-78
2023/08/17 07:40:59;;;;;;;10.23;2.43;;;;;;;;;;4882719;29;20278;-78
2023/08/17 07:43:34;;;;;;;6.00;2.33;;;;;;;;;;4905346;29;20200;-78
2023/08/17 07:46:02;;;;;;;9.70;2.50;;;;;;;;;;4863372;29;20664;-78
2023/08/17 07:48:33;;;;;;;7.60;2.30;;;;;;;;;;4912408;29;20288;-77
2023/08/17 07:51:00;;;;;;;4.67;2.00;;;;;;;;;;4878115;29;20202;-78
2023/08/17 07:53:29;;;;;;;6.90;2.40;;;;;;;;;;4888468;29;20203;-78
2023/08/17 07:55:59;;;;;;;7.50;2.13;;;;;;;;;;4906096;29;20739;-78
2023/08/17 07:58:27;;;;;;;4.93;2.10;;;;;;;;;;4885723;29;20193;-82
2023/08/17 08:00:54;;;;;;;6.57;2.20;;;;;;;;;;4870393;29;20327;-80
2023/08/17 08:03:22;;;;;;;5.87;2.23;;;;;;;;;;4899193;29;20192;-81
2023/08/17 08:05:49;;;;;;;4.23;2.10;;;;;;;;;;4885336;29;20656;-82
2023/08/17 08:08:19;;;;;;;13.37;3.00;;;;;;;;;;4887011;29;20283;-80
2023/08/17 08:10:48;;;;;;;7.93;1.80;;;;;;;;;;4894049;29;20200;-84
2023/08/17 08:13:33;;;;;;;6.47;2.43;;;;;;;;;;4875486;29;20259;-86
2023/08/17 08:16:00;;;;;;;5.17;2.20;;;;;;;;;;4919456;29;20235;-86
2023/08/17 08:18:47;;;;;;;5.97;1.93;;;;;;;;;;4888361;29;20188;-82
2023/08/17 08:21:15;;;;;;;3.53;1.67;;;;;;;;;;4887401;29;20283;-81
2023/08/17 08:23:43;;;;;;;3.07;1.50;;;;;;;;;;4876703;29;20200;-81
2023/08/17 08:26:13;;;;;;;4.07;1.43;;;;;;;;;;4891622;29;20210;-79
2023/08/17 08:28:41;;;;;;;2.97;1.40;;;;;;;;;;4889315;29;20339;-79
2023/08/17 08:31:13;;;;;;;5.43;1.70;;;;;;;;;;4923420;29;20273;-85
2023/08/17 08:33:43;;;;;;;3.47;1.50;;;;;;;;;;4903357;29;20193;-85
2023/08/17 08:36:27;;;;;;;4.00;1.47;;;;;;;;;;4895636;29;20189;-81
2023/08/17 08:38:54;;;;;;;24.17;3.77;;;;;;;;;;4894194;29;20311;-84
2023/08/17 08:41:38;;;;;;;9.40;1.93;;;;;;;;;;4876574;29;20587;-85
2023/08/17 08:44:09;;;;;;;6.53;1.63;;;;;;;;;;4887228;29;20237;-85
2023/08/17 08:46:36;;;;;;;4.57;1.50;;;;;;;;;;4899647;29;20193;-85
2023/08/17 08:49:03;;;;;;;5.80;1.37;;;;;;;;;;4902642;29;20858;-80
2023/08/17 08:51:30;;;;;;;6.60;1.60;;;;;;;;;;4892581;29;20261;-81
2023/08/17 08:54:04;;;;;;;5.23;1.60;;;;;;;;;;4895272;29;20927;-83
2023/08/17 08:56:33;;;;;;;2.63;1.40;;;;;;;;;;4891308;29;20184;-84
2023/08/17 08:59:02;;;;;;;3.83;1.17;;;;;;;;;;4898973;29;20555;-85
2023/08/17 09:01:30;;;;;;;8.23;1.90;;;;;;;;;;4897001;29;20200;-86
2023/08/17 09:04:00;;;;;;;3.77;1.60;;;;;;;;;;4898765;29;20212;-85
2023/08/17 09:06:27;;;;;;;3.37;1.67;;;;;;;;;;4929854;29;20212;-85
2023/08/17 09:08:55;;;;;;;5.17;1.50;;;;;;;;;;4914601;29;20674;-85
2023/08/17 09:11:25;;;;;;;3.40;1.30;;;;;;;;;;4898657;29;20287;-85
2023/08/17 09:13:52;;;;;;;3.23;1.40;;;;;;;;;;4899985;29;20275;-85
2023/08/17 09:16:21;;;;;;;3.73;1.37;;;;;;;;;;4894593;29;20338;-84
2023/08/17 09:18:53;;;;;;;4.80;1.77;;;;;;;;;;4898876;29;20276;-85
2023/08/17 09:21:23;;;;;;;5.10;1.63;;;;;;;;;;4898431;29;20200;-86
2023/08/17 09:23:53;;;;;;;3.70;1.50;;;;;;;;;;4882977;29;20282;-85
2023/08/17 09:26:24;;;;;;;4.23;1.37;;;;;;;;;;4899233;29;20192;-86
2023/08/17 09:29:19;;;;;;;5.87;2.00;;;;;;;;;;4898333;29;20655;-86
2023/08/17 09:31:48;;;;;;;5.07;1.67;;;;;;;;;;4899701;29;20200;-86
2023/08/17 09:34:34;;;;;;;5.40;1.80;;;;;;;;;;4897893;29;20215;-85
2023/08/17 09:37:05;;;;;;;4.83;1.77;;;;;;;;;;4928424;29;20200;-84
2023/08/17 09:39:50;;;;;;;5.77;1.60;;;;;;;;;;4899353;29;20169;-86
2023/08/17 09:42:18;;;;;;;5.03;1.33;;;;;;;;;;4928850;29;20199;-86
2023/08/17 09:45:08;;;;;;;4.53;1.70;;;;;;;;;;4884402;29;20298;-86
2023/08/17 09:47:36;;;;;;;5.80;1.40;;;;;;;;;;4897626;29;20568;-87
2023/08/17 09:50:03;;;;;;;3.37;1.60;;;;;;;;;;4897825;29;20875;-86
2023/08/17 09:52:31;;;;;;;5.83;1.50;;;;;;;;;;4897378;29;20248;-87
2023/08/17 09:55:03;;;;;;;4.83;1.40;;;;;;;;;;4882458;29;20220;-86
2023/08/17 09:57:51;;;;;;;2.27;1.20;;;;;;;;;;4897238;29;20409;-86
2023/08/17 10:00:19;;;;;;;2.60;1.37;;;;;;;;;;4879301;29;20203;-86
2023/08/17 10:02:50;;;;;;;8.23;1.20;;;;;;;;;;4881773;29;20287;-86
2023/08/17 10:05:23;;;;;;;5.60;1.30;;;;;;;;;;4897327;29;20208;-86
2023/08/17 10:07:52;;;;;;;5.50;1.30;;;;;;;;;;4913111;29;20208;-86
2023/08/17 10:10:24;;;;;;;2.90;1.13;;;;;;;;;;4897260;29;20724;-86
2023/08/17 10:13:08;;;;;;;3.27;1.43;;;;;;;;;;4911016;29;20658;-86
2023/08/17 10:15:51;;;;;;;2.17;0.97;;;;;;;;;;4927217;29;20227;-87
2023/08/17 10:18:37;;;;;;;1.57;0.97;;;;;;;;;;4928625;29;20616;-86
2023/08/17 10:21:10;;;;;;;2.47;1.13;;;;;;;;;;4898400;29;20191;-86
2023/08/17 10:23:38;;;;;;;3.67;1.00;;;;;;;;;;4882001;29;20652;-86
2023/08/17 10:26:08;;;;;;;2.70;1.10;;;;;;;;;;4927550;29;20204;-85
2023/08/17 10:28:40;;;;;;;3.13;1.40;;;;;;;;;;4894312;29;20212;-85
2023/08/17 10:31:09;;;;;;;6.37;1.50;;;;;;;;;;4894673;29;20544;-85
2023/08/17 10:33:39;;;;;;;4.17;1.07;;;;;;;;;;4878254;29;20209;-86
2023/08/17 10:36:07;;;;;;;4.67;1.30;;;;;;;;;;4878028;29;20232;-87
2023/08/17 10:38:37;;;;;;;3.43;1.23;;;;;;;;;;4877908;29;20204;-87
2023/08/17 10:41:08;;;;;;;3.43;1.27;;;;;;;;;;4878546;29;20216;-86
2023/08/17 10:43:35;;;;;;;2.50;1.20;;;;;;;;;;4893152;29;20213;-87
2023/08/17 10:46:17;;;;;;;4.90;1.23;;;;;;;;;;4909099;29;20708;-87
2023/08/17 10:49:03;;;;;;;4.50;1.40;;;;;;;;;;4905065;29;20802;-86
2023/08/17 10:51:31;;;;;;;5.10;1.40;;;;;;;;;;4896241;29;20200;-86
2023/08/17 10:54:04;;;;;;;2.77;1.30;;;;;;;;;;4928001;29;20196;-86
2023/08/17 10:56:32;;;;;;;4.37;1.40;;;;;;;;;;4896319;29;20859;-86
2023/08/17 10:59:01;;;;;;;3.20;1.20;;;;;;;;;;4911813;29;20210;-86
2023/08/17 11:01:52;;;;;;;2.87;1.10;;;;;;;;;;4880660;29;20204;-87
2023/08/17 11:04:20;;;;;;;3.73;1.60;;;;;;;;;;4891173;29;20209;-87
2023/08/17 11:07:01;;;;;;;4.87;1.60;;;;;;;;;;4927284;29;20198;-87
2023/08/17 11:09:47;;;;;;;2.80;1.30;;;;;;;;;;4892198;29;20311;-87
2023/08/17 11:12:27;;;;;;;3.73;1.60;;;;;;;;;;4892926;29;20281;-87
2023/08/17 11:14:59;;;;;;;3.90;1.50;;;;;;;;;;4877312;29;20234;-87
2023/08/17 11:17:27;;;;;;;2.63;1.60;;;;;;;;;;4888376;29;20231;-87
2023/08/17 11:19:55;;;;;;;5.30;1.60;;;;;;;;;;4926686;29;20200;-87
2023/08/17 11:22:22;;;;;;;2.23;1.20;;;;;;;;;;4911690;29;20207;-88
2023/08/17 11:24:55;;;;;;;2.00;1.00;;;;;;;;;;4897277;29;20204;-88
2023/08/17 11:27:27;;;;;;;3.17;1.30;;;;;;;;;;4927370;29;20208;-88
2023/08/17 11:29:55;;;;;;;17.93;3.00;;;;;;;;;;4911924;29;20719;-88
2023/08/17 11:32:23;;;;;;;3.67;1.40;;;;;;;;;;4897342;29;20604;-89
2023/08/17 11:34:51;;;;;;;7.20;1.67;;;;;;;;;;4895994;29;20306;-89
2023/08/17 11:37:27;;;;;;;2.70;1.20;;;;;;;;;;4895705;29;20216;-88
2023/08/17 11:39:56;;;;;;;4.93;1.40;;;;;;;;;;4892126;29;20680;-89
2023/08/17 11:42:24;;;;;;;2.40;1.20;;;;;;;;;;4887944;29;20719;-88
2023/08/17 11:44:52;;;;;;;3.10;1.13;;;;;;;;;;4895437;29;20706;-88
2023/08/17 11:47:40;;;;;;;6.00;1.83;;;;;;;;;;4896100;29;20186;-89
2023/08/17 11:50:32;;;;;;;5.00;1.40;;;;;;;;;;4880248;29;20583;-89
2023/08/17 11:53:05;;;;;;;4.10;1.30;;;;;;;;;;4886668;29;20212;-88
2023/08/17 11:55:33;;;;;;;4.23;1.60;;;;;;;;;;4879180;29;20251;-89
2023/08/17 11:58:18;;;;;;;2.83;1.20;;;;;;;;;;4877099;29;20526;-88
2023/08/17 12:00:46;;;;;;;5.00;1.40;;;;;;;;;;4875988;29;20199;-89
2023/08/17 12:03:14;;;;;;;3.90;1.30;;;;;;;;;;4905382;29;20231;-88
2023/08/17 12:05:42;;;;;;;2.27;1.20;;;;;;;;;;4904009;29;20196;-88
2023/08/17 12:08:09;;;;;;;4.00;1.27;;;;;;;;;;4892165;29;20248;-88
2023/08/17 12:10:53;;;;;;;5.77;1.20;;;;;;;;;;4893264;29;20190;-87
2023/08/17 12:13:29;;;;;;;3.33;1.40;;;;;;;;;;4892968;29;20216;-87
2023/08/17 12:15:57;;;;;;;3.10;1.40;;;;;;;;;;4894811;29;20298;-86
2023/08/17 12:18:25;;;;;;;4.03;1.10;;;;;;;;;;4913365;29;20200;-88
2023/08/17 12:20:53;;;;;;;2.80;1.20;;;;;;;;;;4890649;29;20207;-87
2023/08/17 12:23:20;;;;;;;2.00;1.10;;;;;;;;;;4892771;29;20225;-88
2023/08/17 12:25:56;;;;;;;2.83;1.03;;;;;;;;;;4879023;29;20200;-87
2023/08/17 12:28:41;;;;;;;1.40;0.93;;;;;;;;;;4897572;29;20540;-87
2023/08/17 12:31:10;;;;;;;3.10;1.37;;;;;;;;;;4895571;29;20560;-87
2023/08/17 12:33:57;;;;;;;2.53;1.20;;;;;;;;;;4899890;29;20190;-84
2023/08/17 12:36:25;;;;;;;2.57;1.57;;;;;;;;;;4893501;29;20571;-88
2023/08/17 12:38:53;;;;;;;2.67;1.20;;;;;;;;;;4918019;29;20192;-87
2023/08/17 12:41:21;;;;;;;2.80;1.63;;;;;;;;;;4882780;29;20211;-86
2023/08/17 12:43:49;;;;;;;3.67;1.20;;;;;;;;;;4881266;29;20591;-86
2023/08/17 12:46:17;;;;;;;3.67;1.17;;;;;;;;;;4913790;29;20228;-86
2023/08/17 12:48:47;;;;;;;2.50;0.97;;;;;;;;;;4883339;29;20243;-86
2023/08/17 12:51:15;;;;;;;3.80;1.33;;;;;;;;;;4898311;29;20210;-86
2023/08/17 12:53:43;;;;;;;5.17;1.30;;;;;;;;;;4929972;29;20252;-86
2023/08/17 12:56:16;;;;;;;2.93;1.30;;;;;;;;;;4898369;29;20637;-87
2023/08/17 12:58:43;;;;;;;3.20;1.17;;;;;;;;;;4914009;29;20229;-86
2023/08/17 13:01:13;;;;;;;3.60;1.50;;;;;;;;;;4899145;29;20204;-87
2023/08/17 13:03:41;;;;;;;2.50;1.30;;;;;;;;;;4898985;29;20210;-86
2023/08/17 13:06:10;;;;;;;4.60;1.63;;;;;;;;;;4896885;29;20199;-86
2023/08/17 13:08:37;;;;;;;3.50;1.30;;;;;;;;;;4895072;29;20261;-85
2023/08/17 13:11:04;;;;;;;3.10;1.20;;;;;;;;;;4923150;29;20210;-85
2023/08/17 13:13:33;;;;;;;5.13;1.47;;;;;;;;;;4885966;29;20215;-86
2023/08/17 13:16:00;;;;;;;2.50;1.20;;;;;;;;;;4929121;29;20209;-86
2023/08/17 13:18:31;;;;;;;3.73;1.30;;;;;;;;;;4898855;29;20204;-87
2023/08/17 13:21:17;;;;;;;3.23;1.40;;;;;;;;;;4900483;29;20633;-87
2023/08/17 13:23:46;;;;;;;4.20;1.30;;;;;;;;;;4898076;29;20664;-87
2023/08/17 13:26:15;;;;;;;3.43;1.13;;;;;;;;;;4912302;29;20192;-87
2023/08/17 13:28:42;;;;;;;2.90;1.20;;;;;;;;;;4894937;29;20713;-87
2023/08/17 13:31:10;;;;;;;3.47;1.50;;;;;;;;;;4896278;29;20277;-86
2023/08/17 13:33:51;;;;;;;2.93;1.17;;;;;;;;;;4892781;29;20203;-86
2023/08/17 13:36:23;;;;;;;3.00;1.30;;;;;;;;;;4896494;29;20232;-87
2023/08/17 13:38:51;;;;;;;2.30;1.30;;;;;;;;;;4882000;29;20205;-86
2023/08/17 13:41:19;;;;;;;3.97;1.33;;;;;;;;;;4913269;29;20287;-86
2023/08/17 13:43:48;;;;;;;4.27;1.50;;;;;;;;;;4897406;29;20198;-85
2023/08/17 13:46:16;;;;;;;4.67;1.63;;;;;;;;;;4908144;29;20226;-85
2023/08/17 13:48:44;;;;;;;2.50;1.40;;;;;;;;;;4880450;29;20200;-87
2023/08/17 13:51:11;;;;;;;5.07;1.30;;;;;;;;;;4897376;29;20252;-87
2023/08/17 13:53:40;;;;;;;3.80;1.30;;;;;;;;;;4897435;29;20283;-86
2023/08/17 13:56:08;;;;;;;3.00;1.60;;;;;;;;;;4877745;29;20228;-86
2023/08/17 13:58:36;;;;;;;3.50;1.60;;;;;;;;;;4897288;29;20572;-86
2023/08/17 14:01:07;;;;;;;4.33;1.60;;;;;;;;;;4896664;29;20227;-85
2023/08/17 14:03:35;;;;;;;2.50;1.53;;;;;;;;;;4878366;29;20229;-86
2023/08/17 14:06:04;;;;;;;4.47;1.60;;;;;;;;;;4904173;29;20216;-87
2023/08/17 14:08:48;;;;;;;9.60;1.60;;;;;;;;;;4898121;29;20179;-87
2023/08/17 14:11:15;;;;;;;4.83;1.47;;;;;;;;;;4882197;29;20663;-88
2023/08/17 14:14:00;;;;;;;6.77;1.40;;;;;;;;;;4902128;29;20262;-87
2023/08/17 14:16:28;;;;;;;7.30;1.60;;;;;;;;;;4881985;29;20231;-87
2023/08/17 14:19:00;;;;;;;5.47;1.40;;;;;;;;;;4929019;29;20363;-88
2023/08/17 14:21:29;;;;;;;3.87;1.40;;;;;;;;;;4894096;29;20203;-87
2023/08/17 14:23:57;;;;;;;5.57;1.30;;;;;;;;;;4885282;29;20194;-87
2023/08/17 14:26:28;;;;;;;2.80;1.20;;;;;;;;;;4902846;29;20681;-87
2023/08/17 14:28:59;;;;;;;6.83;1.50;;;;;;;;;;4862944;29;20211;-86
2023/08/17 14:31:31;;;;;;;3.83;1.50;;;;;;;;;;4910004;29;20209;-85
2023/08/17 14:33:58;;;;;;;4.43;1.93;;;;;;;;;;4893843;29;20215;-87
2023/08/17 14:36:27;;;;;;;5.50;1.63;;;;;;;;;;4895071;29;20229;-87
2023/08/17 14:38:57;;;;;;;9.30;1.87;;;;;;;;;;4897145;29;20206;-88
2023/08/17 14:41:32;;;;;;;4.17;1.40;;;;;;;;;;4883162;29;20238;-86
2023/08/17 14:44:00;;;;;;;4.17;1.40;;;;;;;;;;4912971;29;20255;-87
2023/08/17 14:46:30;;;;;;;6.60;1.77;;;;;;;;;;4875298;29;20576;-88
2023/08/17 14:49:02;;;;;;;2.47;1.10;;;;;;;;;;4908802;29;20268;-88
2023/08/17 14:51:31;;;;;;;5.03;1.10;;;;;;;;;;4895841;29;20207;-87
2023/08/17 14:54:00;;;;;;;6.00;1.63;;;;;;;;;;4892782;29;20184;-86
2023/08/17 14:56:30;;;;;;;5.03;1.43;;;;;;;;;;4868796;29;20404;-84
2023/08/17 14:58:58;;;;;;;5.27;1.30;;;;;;;;;;4873166;29;20637;-87
2023/08/17 15:01:30;;;;;;;3.23;1.40;;;;;;;;;;4892646;29;21023;-86
2023/08/17 15:03:58;;;;;;;6.13;1.73;;;;;;;;;;4898955;29;20232;-86
2023/08/17 15:06:29;;;;;;;3.87;1.50;;;;;;;;;;4907216;29;20628;-85
2023/08/17 15:09:02;;;;;;;2.83;1.40;;;;;;;;;;4905346;29;20225;-87
2023/08/17 15:11:29;;;;;;;3.17;1.10;;;;;;;;;;4887905;29;20213;-86
2023/08/17 15:13:57;;;;;;;3.17;1.10;;;;;;;;;;4894030;29;20209;-85
2023/08/17 15:16:27;;;;;;;3.67;1.50;;;;;;;;;;4892818;29;20583;-86
2023/08/17 15:18:55;;;;;;;3.20;1.50;;;;;;;;;;4884374;29;20284;-86
2023/08/17 15:21:23;;;;;;;3.93;1.50;;;;;;;;;;4889488;29;20896;-86
2023/08/17 15:23:50;;;;;;;3.37;1.50;;;;;;;;;;4887006;29;20201;-87
2023/08/17 15:26:20;;;;;;;4.30;1.63;;;;;;;;;;4904168;29;20199;-86
2023/08/17 15:28:50;;;;;;;4.10;1.37;;;;;;;;;;4891407;29;20725;-86
2023/08/17 15:31:18;;;;;;;3.07;1.37;;;;;;;;;;4891432;29;20305;-86
2023/08/17 15:33:46;;;;;;;3.17;1.50;;;;;;;;;;4926753;29;20205;-86
2023/08/17 15:36:14;;;;;;;5.17;1.87;;;;;;;;;;4898211;29;20229;-86